sensor_id;sensor_type;location;lat;lon;timestamp;P1;durP1;ratioP1;P2;durP2;ratioP2
67675;SDS011;54456;48.436;10.028;2023-04-26T03:16:45;22.75;;;6.75;;
67675;SDS011;54456;48.436;10.028;2023-04-26T03:18:17;17.90;;;5.93;;
67675;SDS011;54456;48.436;10.028;2023-04-26T03:19:47;23.73;;;7.20;;
67675;SDS011;54456;48.436;10.028;2023-04-26T03:21:17;20.90;;;7.23;;
67675;SDS011;54456;48.436;10.028;2023-04-26T03:22:48;22.33;;;6.53;;
67675;SDS011;54456;48.436;10.028;2023-04-26T03:24:18;28.67;;;7.13;;
67675;SDS011;54456;48.436;10.028;2023-04-26T03:25:49;19.83;;;6.93;;
67675;SDS011;54456;48.436;10.028;2023-04-26T03:27:19;27.38;;;7.53;;
67675;SDS011;54456;48.436;10.028;2023-04-26T03:28:50;21.87;;;6.73;;
67675;SDS011;54456;48.436;10.028;2023-04-26T03:30:20;21.83;;;7.53;;
67675;SDS011;54456;48.436;10.028;2023-04-26T03:31:50;21.10;;;6.50;;
67675;SDS011;54456;48.436;10.028;2023-04-26T03:33:20;21.13;;;6.77;;
67675;SDS011;54456;48.436;10.028;2023-04-26T03:34:51;22.37;;;6.50;;
67675;SDS011;54456;48.436;10.028;2023-04-26T03:36:21;21.13;;;6.47;;
67675;SDS011;54456;48.436;10.028;2023-04-26T03:37:51;21.50;;;6.47;;
67675;SDS011;54456;48.436;10.028;2023-04-26T03:39:21;19.97;;;6.73;;
67675;SDS011;54456;48.436;10.028;2023-04-26T03:40:54;20.80;;;7.00;;
67675;SDS011;54456;48.436;10.028;2023-04-26T03:42:25;17.98;;;6.10;;
67675;SDS011;54456;48.436;10.028;2023-04-26T03:43:55;19.42;;;6.78;;
67675;SDS011;54456;48.436;10.028;2023-04-26T03:45:25;21.20;;;6.60;;
67675;SDS011;54456;48.436;10.028;2023-04-26T03:46:56;18.65;;;6.38;;
67675;SDS011;54456;48.436;10.028;2023-04-26T03:48:26;17.67;;;6.03;;
67675;SDS011;54456;48.436;10.028;2023-04-26T03:49:56;20.50;;;6.50;;
67675;SDS011;54456;48.436;10.028;2023-04-26T03:51:27;18.58;;;6.50;;
67675;SDS011;54456;48.436;10.028;2023-04-26T03:52:57;16.67;;;6.17;;
67675;SDS011;54456;48.436;10.028;2023-04-26T03:54:27;17.70;;;6.53;;
67675;SDS011;54456;48.436;10.028;2023-04-26T03:55:57;17.23;;;6.13;;
67675;SDS011;54456;48.436;10.028;2023-04-26T03:57:27;18.43;;;6.60;;
67675;SDS011;54456;48.436;10.028;2023-04-26T03:58:58;20.70;;;6.50;;
67675;SDS011;54456;48.436;10.028;2023-04-26T04:00:28;18.83;;;6.73;;
67675;SDS011;54456;48.436;10.028;2023-04-26T04:01:58;20.83;;;6.80;;
67675;SDS011;54456;48.436;10.028;2023-04-26T04:03:28;23.67;;;7.83;;
67675;SDS011;54456;48.436;10.028;2023-04-26T04:04:59;20.55;;;7.53;;
67675;SDS011;54456;48.436;10.028;2023-04-26T04:06:29;22.77;;;6.87;;
67675;SDS011;54456;48.436;10.028;2023-04-26T04:08:00;20.13;;;7.05;;
67675;SDS011;54456;48.436;10.028;2023-04-26T04:09:30;20.13;;;7.15;;
67675;SDS011;54456;48.436;10.028;2023-04-26T04:11:01;25.98;;;7.35;;
67675;SDS011;54456;48.436;10.028;2023-04-26T04:12:31;20.13;;;6.53;;
67675;SDS011;54456;48.436;10.028;2023-04-26T04:14:01;22.00;;;7.27;;
67675;SDS011;54456;48.436;10.028;2023-04-26T04:15:31;21.87;;;7.17;;
67675;SDS011;54456;48.436;10.028;2023-04-26T04:17:02;21.57;;;7.13;;
67675;SDS011;54456;48.436;10.028;2023-04-26T04:18:32;22.08;;;7.38;;
67675;SDS011;54456;48.436;10.028;2023-04-26T04:20:02;19.50;;;6.30;;
67675;SDS011;54456;48.436;10.028;2023-04-26T04:21:36;21.33;;;7.25;;
67675;SDS011;54456;48.436;10.028;2023-04-26T04:23:06;21.17;;;6.87;;
67675;SDS011;54456;48.436;10.028;2023-04-26T04:24:36;19.50;;;5.93;;
67675;SDS011;54456;48.436;10.028;2023-04-26T04:26:07;19.85;;;6.38;;
67675;SDS011;54456;48.436;10.028;2023-04-26T04:27:37;18.63;;;7.05;;
67675;SDS011;54456;48.436;10.028;2023-04-26T04:29:08;16.33;;;5.63;;
67675;SDS011;54456;48.436;10.028;2023-04-26T04:30:38;19.77;;;7.07;;
67675;SDS011;54456;48.436;10.028;2023-04-26T04:32:08;18.83;;;6.57;;
67675;SDS011;54456;48.436;10.028;2023-04-26T04:33:39;19.63;;;6.75;;
67675;SDS011;54456;48.436;10.028;2023-04-26T04:35:09;21.38;;;6.78;;
67675;SDS011;54456;48.436;10.028;2023-04-26T04:36:39;23.83;;;7.83;;
67675;SDS011;54456;48.436;10.028;2023-04-26T04:38:10;20.40;;;7.07;;
67675;SDS011;54456;48.436;10.028;2023-04-26T04:39:40;21.83;;;7.27;;
67675;SDS011;54456;48.436;10.028;2023-04-26T04:41:10;20.80;;;6.90;;
67675;SDS011;54456;48.436;10.028;2023-04-26T04:42:41;24.08;;;7.70;;
67675;SDS011;54456;48.436;10.028;2023-04-26T04:44:16;20.45;;;7.22;;
67675;SDS011;54456;48.436;10.028;2023-04-26T04:45:47;17.95;;;6.70;;
67675;SDS011;54456;48.436;10.028;2023-04-26T04:47:18;22.75;;;7.03;;
67675;SDS011;54456;48.436;10.028;2023-04-26T04:48:48;21.20;;;7.50;;
67675;SDS011;54456;48.436;10.028;2023-04-26T04:50:19;24.27;;;7.67;;
67675;SDS011;54456;48.436;10.028;2023-04-26T04:51:49;20.00;;;7.55;;
67675;SDS011;54456;48.436;10.028;2023-04-26T04:53:19;24.60;;;7.97;;
67675;SDS011;54456;48.436;10.028;2023-04-26T04:54:50;24.10;;;8.10;;
67675;SDS011;54456;48.436;10.028;2023-04-26T04:56:20;23.53;;;7.63;;
67675;SDS011;54456;48.436;10.028;2023-04-26T04:57:50;22.70;;;7.53;;
67675;SDS011;54456;48.436;10.028;2023-04-26T04:59:21;23.03;;;8.10;;
67675;SDS011;54456;48.436;10.028;2023-04-26T05:00:51;21.47;;;7.90;;
67675;SDS011;54456;48.436;10.028;2023-04-26T05:02:23;23.48;;;7.57;;
67675;SDS011;54456;48.436;10.028;2023-04-26T05:03:54;24.40;;;8.07;;
67675;SDS011;54456;48.436;10.028;2023-04-26T05:05:24;26.30;;;7.70;;
67675;SDS011;54456;48.436;10.028;2023-04-26T05:06:54;27.93;;;8.47;;
67675;SDS011;54456;48.436;10.028;2023-04-26T05:08:25;23.00;;;7.75;;
67675;SDS011;54456;48.436;10.028;2023-04-26T05:09:55;25.73;;;8.43;;
67675;SDS011;54456;48.436;10.028;2023-04-26T05:11:26;20.23;;;7.50;;
67675;SDS011;54456;48.436;10.028;2023-04-26T05:12:56;24.48;;;7.40;;
67675;SDS011;54456;48.436;10.028;2023-04-26T05:14:28;20.97;;;7.43;;
67675;SDS011;54456;48.436;10.028;2023-04-26T05:15:58;22.10;;;7.05;;
67675;SDS011;54456;48.436;10.028;2023-04-26T05:17:28;20.83;;;7.47;;
67675;SDS011;54456;48.436;10.028;2023-04-26T05:19:01;21.00;;;7.72;;
67675;SDS011;54456;48.436;10.028;2023-04-26T05:20:31;22.13;;;7.17;;
67675;SDS011;54456;48.436;10.028;2023-04-26T05:22:01;22.77;;;8.23;;
67675;SDS011;54456;48.436;10.028;2023-04-26T05:23:32;16.08;;;6.00;;
67675;SDS011;54456;48.436;10.028;2023-04-26T05:25:03;19.48;;;6.68;;
67675;SDS011;54456;48.436;10.028;2023-04-26T05:26:34;17.83;;;5.95;;
67675;SDS011;54456;48.436;10.028;2023-04-26T05:28:04;21.80;;;7.45;;
67675;SDS011;54456;48.436;10.028;2023-04-26T05:29:37;22.73;;;7.35;;
67675;SDS011;54456;48.436;10.028;2023-04-26T05:31:10;18.90;;;6.70;;
67675;SDS011;54456;48.436;10.028;2023-04-26T05:32:41;19.80;;;7.53;;
67675;SDS011;54456;48.436;10.028;2023-04-26T05:34:11;18.23;;;6.47;;
67675;SDS011;54456;48.436;10.028;2023-04-26T05:35:41;18.97;;;6.37;;
67675;SDS011;54456;48.436;10.028;2023-04-26T05:37:12;18.83;;;6.20;;
67675;SDS011;54456;48.436;10.028;2023-04-26T05:38:42;18.70;;;6.67;;
67675;SDS011;54456;48.436;10.028;2023-04-26T05:40:12;20.23;;;6.63;;
67675;SDS011;54456;48.436;10.028;2023-04-26T05:41:42;23.07;;;8.10;;
67675;SDS011;54456;48.436;10.028;2023-04-26T05:43:13;21.77;;;6.85;;
67675;SDS011;54456;48.436;10.028;2023-04-26T05:44:44;20.00;;;7.40;;
67675;SDS011;54456;48.436;10.028;2023-04-26T05:46:14;19.80;;;5.93;;
67675;SDS011;54456;48.436;10.028;2023-04-26T05:47:44;22.20;;;6.37;;
67675;SDS011;54456;48.436;10.028;2023-04-26T05:49:16;17.92;;;6.32;;
67675;SDS011;54456;48.436;10.028;2023-04-26T05:50:47;13.53;;;5.30;;
67675;SDS011;54456;48.436;10.028;2023-04-26T05:52:17;18.52;;;5.30;;
67675;SDS011;54456;48.436;10.028;2023-04-26T05:53:47;20.97;;;6.23;;
67675;SDS011;54456;48.436;10.028;2023-04-26T05:55:18;20.00;;;5.97;;
67675;SDS011;54456;48.436;10.028;2023-04-26T05:56:49;17.83;;;5.70;;
67675;SDS011;54456;48.436;10.028;2023-04-26T05:58:19;18.80;;;4.67;;
67675;SDS011;54456;48.436;10.028;2023-04-26T05:59:49;19.03;;;6.53;;
67675;SDS011;54456;48.436;10.028;2023-04-26T06:01:19;17.33;;;6.30;;
67675;SDS011;54456;48.436;10.028;2023-04-26T06:02:50;17.38;;;5.00;;
67675;SDS011;54456;48.436;10.028;2023-04-26T06:04:20;13.97;;;4.33;;
67675;SDS011;54456;48.436;10.028;2023-04-26T06:05:50;19.17;;;5.40;;
67675;SDS011;54456;48.436;10.028;2023-04-26T06:07:21;19.77;;;6.00;;
67675;SDS011;54456;48.436;10.028;2023-04-26T06:08:51;17.15;;;6.30;;
67675;SDS011;54456;48.436;10.028;2023-04-26T06:10:21;18.90;;;6.40;;
67675;SDS011;54456;48.436;10.028;2023-04-26T06:11:52;17.87;;;6.40;;
67675;SDS011;54456;48.436;10.028;2023-04-26T06:13:22;18.87;;;6.23;;
67675;SDS011;54456;48.436;10.028;2023-04-26T06:14:52;16.70;;;5.83;;
67675;SDS011;54456;48.436;10.028;2023-04-26T06:16:22;21.90;;;7.10;;
67675;SDS011;54456;48.436;10.028;2023-04-26T06:17:53;19.83;;;6.90;;
67675;SDS011;54456;48.436;10.028;2023-04-26T06:19:23;18.63;;;7.13;;
67675;SDS011;54456;48.436;10.028;2023-04-26T06:20:53;18.43;;;6.63;;
67675;SDS011;54456;48.436;10.028;2023-04-26T06:22:23;18.30;;;6.57;;
67675;SDS011;54456;48.436;10.028;2023-04-26T06:23:53;15.97;;;5.70;;
67675;SDS011;54456;48.436;10.028;2023-04-26T06:25:24;18.93;;;7.17;;
67675;SDS011;54456;48.436;10.028;2023-04-26T06:26:54;14.77;;;5.33;;
67675;SDS011;54456;48.436;10.028;2023-04-26T06:28:24;17.27;;;5.77;;
67675;SDS011;54456;48.436;10.028;2023-04-26T06:29:55;18.90;;;5.28;;
67675;SDS011;54456;48.436;10.028;2023-04-26T06:31:25;16.83;;;6.00;;
67675;SDS011;54456;48.436;10.028;2023-04-26T06:32:55;15.77;;;5.63;;
67675;SDS011;54456;48.436;10.028;2023-04-26T06:34:27;12.45;;;4.35;;
67675;SDS011;54456;48.436;10.028;2023-04-26T06:35:58;13.53;;;5.20;;
67675;SDS011;54456;48.436;10.028;2023-04-26T06:37:28;11.00;;;4.20;;
67675;SDS011;54456;48.436;10.028;2023-04-26T06:38:58;11.57;;;4.10;;
67675;SDS011;54456;48.436;10.028;2023-04-26T06:40:28;14.30;;;4.63;;
67675;SDS011;54456;48.436;10.028;2023-04-26T06:41:59;15.55;;;5.20;;
67675;SDS011;54456;48.436;10.028;2023-04-26T06:43:30;15.73;;;4.63;;
67675;SDS011;54456;48.436;10.028;2023-04-26T06:45:00;17.40;;;5.43;;
67675;SDS011;54456;48.436;10.028;2023-04-26T06:46:30;15.27;;;5.90;;
67675;SDS011;54456;48.436;10.028;2023-04-26T06:48:00;12.03;;;4.27;;
67675;SDS011;54456;48.436;10.028;2023-04-26T06:49:32;19.70;;;5.93;;
67675;SDS011;54456;48.436;10.028;2023-04-26T06:51:05;12.97;;;4.07;;
67675;SDS011;54456;48.436;10.028;2023-04-26T06:52:36;20.23;;;5.88;;
67675;SDS011;54456;48.436;10.028;2023-04-26T06:54:06;17.63;;;5.93;;
67675;SDS011;54456;48.436;10.028;2023-04-26T06:55:36;16.43;;;5.83;;
67675;SDS011;54456;48.436;10.028;2023-04-26T06:57:06;15.23;;;5.27;;
67675;SDS011;54456;48.436;10.028;2023-04-26T06:58:37;15.77;;;5.70;;
67675;SDS011;54456;48.436;10.028;2023-04-26T07:00:07;16.03;;;5.80;;
67675;SDS011;54456;48.436;10.028;2023-04-26T07:01:38;17.10;;;5.88;;
67675;SDS011;54456;48.436;10.028;2023-04-26T07:03:08;16.33;;;5.53;;
67675;SDS011;54456;48.436;10.028;2023-04-26T07:04:39;13.70;;;4.30;;
67675;SDS011;54456;48.436;10.028;2023-04-26T07:06:09;15.18;;;5.13;;
67675;SDS011;54456;48.436;10.028;2023-04-26T07:07:39;15.80;;;4.57;;
67675;SDS011;54456;48.436;10.028;2023-04-26T07:09:09;13.93;;;5.00;;
67675;SDS011;54456;48.436;10.028;2023-04-26T07:10:40;14.40;;;5.27;;
67675;SDS011;54456;48.436;10.028;2023-04-26T07:12:10;13.73;;;5.00;;
67675;SDS011;54456;48.436;10.028;2023-04-26T07:13:40;13.73;;;5.45;;
67675;SDS011;54456;48.436;10.028;2023-04-26T07:15:11;10.10;;;3.40;;
67675;SDS011;54456;48.436;10.028;2023-04-26T07:16:41;13.17;;;4.40;;
67675;SDS011;54456;48.436;10.028;2023-04-26T07:18:11;14.70;;;5.10;;
67675;SDS011;54456;48.436;10.028;2023-04-26T07:19:41;14.27;;;5.40;;
67675;SDS011;54456;48.436;10.028;2023-04-26T07:21:12;15.27;;;5.53;;
67675;SDS011;54456;48.436;10.028;2023-04-26T07:22:42;14.93;;;4.97;;
67675;SDS011;54456;48.436;10.028;2023-04-26T07:24:12;13.83;;;5.00;;
67675;SDS011;54456;48.436;10.028;2023-04-26T07:25:42;15.13;;;4.77;;
67675;SDS011;54456;48.436;10.028;2023-04-26T07:27:12;13.83;;;4.50;;
67675;SDS011;54456;48.436;10.028;2023-04-26T07:28:43;12.73;;;4.30;;
67675;SDS011;54456;48.436;10.028;2023-04-26T07:30:13;13.03;;;4.63;;
67675;SDS011;54456;48.436;10.028;2023-04-26T07:31:44;14.00;;;4.97;;
67675;SDS011;54456;48.436;10.028;2023-04-26T07:33:14;13.00;;;4.40;;
67675;SDS011;54456;48.436;10.028;2023-04-26T07:34:44;14.73;;;4.93;;
67675;SDS011;54456;48.436;10.028;2023-04-26T07:36:15;12.90;;;5.05;;
67675;SDS011;54456;48.436;10.028;2023-04-26T07:37:45;15.37;;;5.40;;
67675;SDS011;54456;48.436;10.028;2023-04-26T07:39:15;12.37;;;4.93;;
67675;SDS011;54456;48.436;10.028;2023-04-26T07:40:45;14.53;;;4.83;;
67675;SDS011;54456;48.436;10.028;2023-04-26T07:42:15;12.53;;;4.40;;
67675;SDS011;54456;48.436;10.028;2023-04-26T07:43:46;12.20;;;4.50;;
67675;SDS011;54456;48.436;10.028;2023-04-26T07:45:16;11.77;;;5.10;;
67675;SDS011;54456;48.436;10.028;2023-04-26T07:46:47;13.45;;;5.05;;
67675;SDS011;54456;48.436;10.028;2023-04-26T07:48:17;12.97;;;4.50;;
67675;SDS011;54456;48.436;10.028;2023-04-26T07:49:51;14.70;;;5.05;;
67675;SDS011;54456;48.436;10.028;2023-04-26T07:51:21;13.90;;;5.00;;
67675;SDS011;54456;48.436;10.028;2023-04-26T07:52:51;14.33;;;4.87;;
67675;SDS011;54456;48.436;10.028;2023-04-26T07:54:22;14.10;;;5.33;;
67675;SDS011;54456;48.436;10.028;2023-04-26T07:55:52;13.87;;;4.80;;
67675;SDS011;54456;48.436;10.028;2023-04-26T07:57:22;13.60;;;5.07;;
67675;SDS011;54456;48.436;10.028;2023-04-26T07:58:53;15.45;;;5.07;;
67675;SDS011;54456;48.436;10.028;2023-04-26T08:00:23;12.33;;;5.37;;
67675;SDS011;54456;48.436;10.028;2023-04-26T08:01:54;14.73;;;5.27;;
67675;SDS011;54456;48.436;10.028;2023-04-26T08:03:24;14.10;;;5.03;;
67675;SDS011;54456;48.436;10.028;2023-04-26T08:04:55;13.27;;;5.20;;
67675;SDS011;54456;48.436;10.028;2023-04-26T08:06:26;12.60;;;4.45;;
67675;SDS011;54456;48.436;10.028;2023-04-26T08:08:00;12.73;;;4.72;;
67675;SDS011;54456;48.436;10.028;2023-04-26T08:09:31;16.48;;;5.15;;
67675;SDS011;54456;48.436;10.028;2023-04-26T08:11:02;14.23;;;4.57;;
67675;SDS011;54456;48.436;10.028;2023-04-26T08:14:06;11.30;;;3.80;;
67675;SDS011;54456;48.436;10.028;2023-04-26T08:15:36;6.83;;;2.20;;
67675;SDS011;54456;48.436;10.028;2023-04-26T08:17:07;12.20;;;4.50;;
67675;SDS011;54456;48.436;10.028;2023-04-26T08:18:38;14.13;;;4.45;;
67675;SDS011;54456;48.436;10.028;2023-04-26T08:20:09;8.82;;;2.88;;
67675;SDS011;54456;48.436;10.028;2023-04-26T08:21:39;12.98;;;4.82;;
67675;SDS011;54456;48.436;10.028;2023-04-26T08:23:09;14.40;;;4.70;;
67675;SDS011;54456;48.436;10.028;2023-04-26T08:24:40;10.63;;;3.17;;
67675;SDS011;54456;48.436;10.028;2023-04-26T08:26:10;15.33;;;4.50;;
67675;SDS011;54456;48.436;10.028;2023-04-26T08:27:40;13.07;;;4.90;;
67675;SDS011;54456;48.436;10.028;2023-04-26T08:29:11;11.98;;;3.95;;
67675;SDS011;54456;48.436;10.028;2023-04-26T08:30:41;12.73;;;4.50;;
67675;SDS011;54456;48.436;10.028;2023-04-26T08:32:12;12.63;;;4.85;;
67675;SDS011;54456;48.436;10.028;2023-04-26T08:33:42;13.93;;;4.43;;
67675;SDS011;54456;48.436;10.028;2023-04-26T08:35:12;14.97;;;4.93;;
67675;SDS011;54456;48.436;10.028;2023-04-26T08:36:43;10.93;;;4.38;;
67675;SDS011;54456;48.436;10.028;2023-04-26T08:38:14;11.48;;;3.45;;
67675;SDS011;54456;48.436;10.028;2023-04-26T08:39:45;11.97;;;4.80;;
67675;SDS011;54456;48.436;10.028;2023-04-26T08:41:15;16.13;;;5.95;;
67675;SDS011;54456;48.436;10.028;2023-04-26T08:42:49;16.45;;;5.45;;
67675;SDS011;54456;48.436;10.028;2023-04-26T08:44:22;7.60;;;2.85;;
67675;SDS011;54456;48.436;10.028;2023-04-26T08:45:56;8.65;;;3.40;;
67675;SDS011;54456;48.436;10.028;2023-04-26T08:47:28;13.48;;;4.68;;
67675;SDS011;54456;48.436;10.028;2023-04-26T08:49:12;16.95;;;5.45;;
67675;SDS011;54456;48.436;10.028;2023-04-26T08:50:43;11.68;;;4.53;;
67675;SDS011;54456;48.436;10.028;2023-04-26T08:52:26;10.88;;;3.58;;
67675;SDS011;54456;48.436;10.028;2023-04-26T08:53:59;11.95;;;4.30;;
67675;SDS011;54456;48.436;10.028;2023-04-26T08:55:30;13.02;;;4.32;;
67675;SDS011;54456;48.436;10.028;2023-04-26T08:57:08;16.60;;;5.28;;
67675;SDS011;54456;48.436;10.028;2023-04-26T08:58:39;14.52;;;5.47;;
67675;SDS011;54456;48.436;10.028;2023-04-26T09:00:09;15.07;;;5.40;;
67675;SDS011;54456;48.436;10.028;2023-04-26T09:01:43;13.05;;;4.43;;
67675;SDS011;54456;48.436;10.028;2023-04-26T09:03:14;9.48;;;3.78;;
67675;SDS011;54456;48.436;10.028;2023-04-26T09:04:46;12.53;;;5.07;;
67675;SDS011;54456;48.436;10.028;2023-04-26T09:06:17;10.60;;;3.47;;
67675;SDS011;54456;48.436;10.028;2023-04-26T09:07:48;12.27;;;4.63;;
67675;SDS011;54456;48.436;10.028;2023-04-26T09:09:18;13.52;;;5.00;;
67675;SDS011;54456;48.436;10.028;2023-04-26T09:10:50;12.35;;;5.03;;
67675;SDS011;54456;48.436;10.028;2023-04-26T09:12:20;11.80;;;4.80;;
67675;SDS011;54456;48.436;10.028;2023-04-26T09:13:50;11.43;;;4.60;;
67675;SDS011;54456;48.436;10.028;2023-04-26T09:15:21;12.70;;;4.53;;
67675;SDS011;54456;48.436;10.028;2023-04-26T09:16:52;11.95;;;4.63;;
67675;SDS011;54456;48.436;10.028;2023-04-26T09:18:23;13.35;;;4.90;;
67675;SDS011;54456;48.436;10.028;2023-04-26T09:19:53;12.23;;;4.32;;
67675;SDS011;54456;48.436;10.028;2023-04-26T09:21:23;11.17;;;4.67;;
67675;SDS011;54456;48.436;10.028;2023-04-26T09:23:07;14.27;;;4.50;;
67675;SDS011;54456;48.436;10.028;2023-04-26T09:24:47;13.30;;;4.72;;
67675;SDS011;54456;48.436;10.028;2023-04-26T09:26:18;11.48;;;4.28;;
67675;SDS011;54456;48.436;10.028;2023-04-26T09:27:49;9.90;;;3.88;;
67675;SDS011;54456;48.436;10.028;2023-04-26T09:29:20;12.57;;;4.13;;
67675;SDS011;54456;48.436;10.028;2023-04-26T09:32:24;12.70;;;4.28;;
67675;SDS011;54456;48.436;10.028;2023-04-26T09:33:58;14.02;;;4.25;;
67675;SDS011;54456;48.436;10.028;2023-04-26T09:36:59;11.43;;;4.07;;
67675;SDS011;54456;48.436;10.028;2023-04-26T09:38:29;9.97;;;4.30;;
67675;SDS011;54456;48.436;10.028;2023-04-26T09:40:17;11.02;;;4.05;;
67675;SDS011;54456;48.436;10.028;2023-04-26T09:41:48;11.07;;;4.35;;
67675;SDS011;54456;48.436;10.028;2023-04-26T09:43:19;12.43;;;4.63;;
67675;SDS011;54456;48.436;10.028;2023-04-26T09:44:50;10.75;;;4.35;;
67675;SDS011;54456;48.436;10.028;2023-04-26T09:46:21;14.60;;;4.90;;
67675;SDS011;54456;48.436;10.028;2023-04-26T09:47:53;13.20;;;4.72;;
67675;SDS011;54456;48.436;10.028;2023-04-26T09:49:28;10.43;;;3.80;;
67675;SDS011;54456;48.436;10.028;2023-04-26T09:52:31;13.35;;;4.38;;
67675;SDS011;54456;48.436;10.028;2023-04-26T09:54:11;11.82;;;4.22;;
67675;SDS011;54456;48.436;10.028;2023-04-26T09:55:41;9.23;;;3.40;;
67675;SDS011;54456;48.436;10.028;2023-04-26T09:57:12;11.67;;;4.97;;
67675;SDS011;54456;48.436;10.028;2023-04-26T10:00:12;11.60;;;3.83;;
67675;SDS011;54456;48.436;10.028;2023-04-26T10:01:44;10.35;;;3.40;;
67675;SDS011;54456;48.436;10.028;2023-04-26T10:03:14;13.07;;;4.40;;
67675;SDS011;54456;48.436;10.028;2023-04-26T10:04:47;15.20;;;4.43;;
67675;SDS011;54456;48.436;10.028;2023-04-26T10:06:17;12.15;;;4.18;;
67675;SDS011;54456;48.436;10.028;2023-04-26T10:07:48;11.20;;;4.70;;
67675;SDS011;54456;48.436;10.028;2023-04-26T10:09:18;12.38;;;4.40;;
67675;SDS011;54456;48.436;10.028;2023-04-26T10:10:49;12.60;;;4.23;;
67675;SDS011;54456;48.436;10.028;2023-04-26T10:12:20;12.85;;;4.70;;
67675;SDS011;54456;48.436;10.028;2023-04-26T10:13:50;10.70;;;4.33;;
67675;SDS011;54456;48.436;10.028;2023-04-26T10:15:21;11.90;;;5.05;;
67675;SDS011;54456;48.436;10.028;2023-04-26T10:16:51;12.65;;;4.72;;
67675;SDS011;54456;48.436;10.028;2023-04-26T10:18:23;10.95;;;5.07;;
67675;SDS011;54456;48.436;10.028;2023-04-26T10:19:55;14.40;;;4.50;;
67675;SDS011;54456;48.436;10.028;2023-04-26T10:21:30;13.35;;;5.13;;
67675;SDS011;54456;48.436;10.028;2023-04-26T10:23:04;13.38;;;5.00;;
67675;SDS011;54456;48.436;10.028;2023-04-26T10:24:36;14.48;;;6.05;;
67675;SDS011;54456;48.436;10.028;2023-04-26T10:26:06;15.65;;;5.65;;
67675;SDS011;54456;48.436;10.028;2023-04-26T10:29:13;14.57;;;5.10;;
67675;SDS011;54456;48.436;10.028;2023-04-26T10:30:52;13.20;;;5.27;;
67675;SDS011;54456;48.436;10.028;2023-04-26T10:32:23;15.25;;;5.57;;
67675;SDS011;54456;48.436;10.028;2023-04-26T10:36:15;12.10;;;5.05;;
67675;SDS011;54456;48.436;10.028;2023-04-26T10:39:27;11.38;;;4.20;;
67675;SDS011;54456;48.436;10.028;2023-04-26T10:41:26;9.13;;;3.55;;
67675;SDS011;54456;48.436;10.028;2023-04-26T10:44:45;11.95;;;4.40;;
67675;SDS011;54456;48.436;10.028;2023-04-26T10:46:48;12.13;;;3.70;;
67675;SDS011;54456;48.436;10.028;2023-04-26T10:49:48;13.73;;;4.45;;
67675;SDS011;54456;48.436;10.028;2023-04-26T10:51:19;12.55;;;3.70;;
67675;SDS011;54456;48.436;10.028;2023-04-26T10:54:43;10.85;;;3.58;;
67675;SDS011;54456;48.436;10.028;2023-04-26T10:59:18;12.45;;;4.20;;
67675;SDS011;54456;48.436;10.028;2023-04-26T11:02:43;11.85;;;4.60;;
67675;SDS011;54456;48.436;10.028;2023-04-26T11:04:14;13.50;;;4.63;;
67675;SDS011;54456;48.436;10.028;2023-04-26T11:05:51;13.13;;;4.22;;
67675;SDS011;54456;48.436;10.028;2023-04-26T11:07:37;11.88;;;4.25;;
67675;SDS011;54456;48.436;10.028;2023-04-26T11:09:31;10.88;;;3.65;;
67675;SDS011;54456;48.436;10.028;2023-04-26T11:12:31;11.73;;;4.15;;
67675;SDS011;54456;48.436;10.028;2023-04-26T11:14:02;9.60;;;3.42;;
67675;SDS011;54456;48.436;10.028;2023-04-26T11:15:32;13.38;;;4.32;;
67675;SDS011;54456;48.436;10.028;2023-04-26T11:17:03;11.20;;;4.30;;
67675;SDS011;54456;48.436;10.028;2023-04-26T11:18:34;11.02;;;3.47;;
67675;SDS011;54456;48.436;10.028;2023-04-26T11:20:08;10.93;;;4.25;;
67675;SDS011;54456;48.436;10.028;2023-04-26T11:21:39;15.52;;;4.60;;
67675;SDS011;54456;48.436;10.028;2023-04-26T11:23:09;11.13;;;4.22;;
67675;SDS011;54456;48.436;10.028;2023-04-26T11:24:39;11.93;;;4.43;;
67675;SDS011;54456;48.436;10.028;2023-04-26T11:26:11;10.63;;;4.18;;
67675;SDS011;54456;48.436;10.028;2023-04-26T11:27:42;11.73;;;4.30;;
67675;SDS011;54456;48.436;10.028;2023-04-26T11:29:17;11.82;;;4.55;;
67675;SDS011;54456;48.436;10.028;2023-04-26T11:30:50;10.73;;;4.45;;
67675;SDS011;54456;48.436;10.028;2023-04-26T11:32:20;13.38;;;4.38;;
67675;SDS011;54456;48.436;10.028;2023-04-26T11:33:50;11.07;;;4.03;;
67675;SDS011;54456;48.436;10.028;2023-04-26T11:35:21;9.73;;;3.60;;
67675;SDS011;54456;48.436;10.028;2023-04-26T11:36:52;11.68;;;4.30;;
67675;SDS011;54456;48.436;10.028;2023-04-26T11:38:26;11.23;;;3.97;;
67675;SDS011;54456;48.436;10.028;2023-04-26T11:39:56;11.63;;;4.45;;
67675;SDS011;54456;48.436;10.028;2023-04-26T11:41:26;13.30;;;4.83;;
67675;SDS011;54456;48.436;10.028;2023-04-26T11:43:00;11.80;;;4.53;;
67675;SDS011;54456;48.436;10.028;2023-04-26T11:44:31;15.82;;;5.30;;
67675;SDS011;54456;48.436;10.028;2023-04-26T11:46:01;10.27;;;4.17;;
67675;SDS011;54456;48.436;10.028;2023-04-26T11:47:32;13.63;;;4.30;;
67675;SDS011;54456;48.436;10.028;2023-04-26T11:49:03;13.90;;;4.18;;
67675;SDS011;54456;48.436;10.028;2023-04-26T11:50:36;12.02;;;4.10;;
67675;SDS011;54456;48.436;10.028;2023-04-26T11:52:07;12.35;;;3.85;;
67675;SDS011;54456;48.436;10.028;2023-04-26T11:53:38;11.40;;;3.85;;
67675;SDS011;54456;48.436;10.028;2023-04-26T11:55:09;10.30;;;3.38;;
67675;SDS011;54456;48.436;10.028;2023-04-26T11:56:39;10.23;;;3.57;;
67675;SDS011;54456;48.436;10.028;2023-04-26T11:58:11;11.33;;;4.40;;
67675;SDS011;54456;48.436;10.028;2023-04-26T11:59:41;11.07;;;4.35;;
67675;SDS011;54456;48.436;10.028;2023-04-26T12:01:18;12.50;;;4.13;;
67675;SDS011;54456;48.436;10.028;2023-04-26T12:02:49;12.15;;;4.75;;
67675;SDS011;54456;48.436;10.028;2023-04-26T12:04:25;9.40;;;3.25;;
67675;SDS011;54456;48.436;10.028;2023-04-26T12:05:56;11.43;;;4.18;;
67675;SDS011;54456;48.436;10.028;2023-04-26T12:07:31;10.10;;;3.63;;
67675;SDS011;54456;48.436;10.028;2023-04-26T12:09:01;8.90;;;3.92;;
67675;SDS011;54456;48.436;10.028;2023-04-26T12:10:34;10.57;;;3.75;;
67675;SDS011;54456;48.436;10.028;2023-04-26T12:12:05;10.60;;;4.30;;
67675;SDS011;54456;48.436;10.028;2023-04-26T12:13:35;12.82;;;4.20;;
67675;SDS011;54456;48.436;10.028;2023-04-26T12:15:09;11.88;;;4.22;;
67675;SDS011;54456;48.436;10.028;2023-04-26T12:16:41;11.77;;;4.40;;
67675;SDS011;54456;48.436;10.028;2023-04-26T12:18:11;10.57;;;4.50;;
67675;SDS011;54456;48.436;10.028;2023-04-26T12:19:41;9.87;;;3.80;;
67675;SDS011;54456;48.436;10.028;2023-04-26T12:21:12;11.35;;;3.47;;
67675;SDS011;54456;48.436;10.028;2023-04-26T12:22:55;11.07;;;4.00;;
67675;SDS011;54456;48.436;10.028;2023-04-26T12:24:27;8.43;;;3.13;;
67675;SDS011;54456;48.436;10.028;2023-04-26T12:26:05;12.73;;;3.83;;
67675;SDS011;54456;48.436;10.028;2023-04-26T12:27:36;12.57;;;3.80;;
67675;SDS011;54456;48.436;10.028;2023-04-26T12:29:08;8.55;;;3.90;;
67675;SDS011;54456;48.436;10.028;2023-04-26T12:30:39;10.97;;;4.20;;
67675;SDS011;54456;48.436;10.028;2023-04-26T12:32:10;8.75;;;3.55;;
67675;SDS011;54456;48.436;10.028;2023-04-26T12:33:40;9.30;;;3.80;;
67675;SDS011;54456;48.436;10.028;2023-04-26T12:35:10;9.57;;;3.67;;
67675;SDS011;54456;48.436;10.028;2023-04-26T12:36:41;11.05;;;3.90;;